TimeEDT,TemperatureF,Dew PointF,Humidity,Sea Level PressureIn,VisibilityMPH,Wind Direction,Wind SpeedMPH,Gust SpeedMPH,PrecipitationIn,Events,Conditions,WindDirDegrees,DateUTC
12:13 AM,64.4,60.8,88,29.98,10.0,NNW,9.2,-,N/A,,Mostly Cloudy,340,2013-09-05 04:13:00
12:54 AM,63.0,55.9,78,29.99,10.0,NW,6.9,-,N/A,,Scattered Clouds,320,2013-09-05 04:54:00
1:54 AM,61.0,55.9,83,30.01,10.0,WNW,6.9,-,N/A,,Scattered Clouds,300,2013-09-05 05:54:00
2:54 AM,59.0,54.0,83,30.01,10.0,West,5.8,-,N/A,,Mostly Cloudy,280,2013-09-05 06:54:00
3:54 AM,57.0,52.0,83,30.03,10.0,NW,5.8,-,N/A,,Mostly Cloudy,310,2013-09-05 07:54:00
4:54 AM,55.9,52.0,87,30.05,10.0,WNW,6.9,-,N/A,,Mostly Cloudy,300,2013-09-05 08:54:00
5:54 AM,55.0,52.0,89,30.07,10.0,WNW,3.5,-,N/A,,Mostly Cloudy,300,2013-09-05 09:54:00
6:54 AM,54.0,51.1,90,30.09,10.0,Calm,Calm,-,N/A,,Mostly Cloudy,0,2013-09-05 10:54:00
7:54 AM,54.0,52.0,93,30.10,10.0,Calm,Calm,-,N/A,,Mostly Cloudy,0,2013-09-05 11:54:00
8:54 AM,59.0,51.1,75,30.11,10.0,West,4.6,-,N/A,,Mostly Cloudy,280,2013-09-05 12:54:00
9:54 AM,63.0,52.0,67,30.13,10.0,WNW,5.8,-,N/A,,Mostly Cloudy,290,2013-09-05 13:54:00
10:54 AM,63.0,50.0,63,30.13,10.0,North,9.2,-,N/A,,Mostly Cloudy,360,2013-09-05 14:54:00
11:54 AM,63.0,51.1,65,30.14,10.0,NNW,12.7,19.6,N/A,,Mostly Cloudy,340,2013-09-05 15:54:00
12:54 PM,66.0,48.9,54,30.15,10.0,NNW,10.4,20.7,N/A,,Scattered Clouds,330,2013-09-05 16:54:00
1:54 PM,64.9,45.0,48,30.17,10.0,NNW,10.4,-,N/A,,Scattered Clouds,340,2013-09-05 17:54:00
2:54 PM,64.0,42.1,45,30.17,10.0,NW,10.4,-,N/A,,Scattered Clouds,310,2013-09-05 18:54:00
3:54 PM,64.0,43.0,46,30.17,10.0,NW,13.8,-,N/A,,Scattered Clouds,320,2013-09-05 19:54:00
4:54 PM,64.0,41.0,43,30.18,10.0,NNW,13.8,-,N/A,,Mostly Cloudy,340,2013-09-05 20:54:00
5:54 PM,63.0,39.0,41,30.19,10.0,NNW,10.4,-,N/A,,Scattered Clouds,340,2013-09-05 21:54:00
6:54 PM,61.0,39.9,46,30.20,10.0,WNW,6.9,-,N/A,,Scattered Clouds,300,2013-09-05 22:54:00
7:54 PM,57.0,41.0,55,30.22,10.0,West,4.6,-,N/A,,Partly Cloudy,270,2013-09-05 23:54:00
8:54 PM,54.0,42.1,64,30.23,10.0,West,4.6,-,N/A,,Scattered Clouds,270,2013-09-06 00:54:00
9:54 PM,51.1,43.0,74,30.24,10.0,West,6.9,-,N/A,,Partly Cloudy,270,2013-09-06 01:54:00
10:54 PM,48.9,43.0,80,30.25,10.0,West,6.9,-,N/A,,Partly Cloudy,270,2013-09-06 02:54:00
11:54 PM,48.9,43.0,80,30.24,10.0,Calm,Calm,-,N/A,,Partly Cloudy,0,2013-09-06 03:54:00